createdAt,value
2018-05-23T00:00:10.807Z,1005.5
2018-05-23T00:01:12.429Z,1005.5
2018-05-23T00:02:14.044Z,1005.5
2018-05-23T00:03:15.659Z,1005.5
2018-05-23T00:04:17.277Z,1005.4
2018-05-23T00:05:18.889Z,1005.5
2018-05-23T00:06:20.509Z,1005.5
2018-05-23T00:07:22.121Z,1005.4
2018-05-23T00:08:23.744Z,1005.4
2018-05-23T00:09:25.360Z,1005.4
2018-05-23T00:10:26.981Z,1005.4
2018-05-23T00:11:28.593Z,1005.4
2018-05-23T00:12:30.203Z,1005.4
2018-05-23T00:13:31.824Z,1005.4
2018-05-23T00:14:33.442Z,1005.4
2018-05-23T00:15:35.055Z,1005.4
2018-05-23T00:16:36.677Z,1005.5
2018-05-23T00:17:38.289Z,1005.5
2018-05-23T00:18:39.903Z,1005.5
2018-05-23T00:19:41.521Z,1005.6
2018-05-23T00:20:43.138Z,1005.6
2018-05-23T00:21:44.759Z,1005.6
2018-05-23T00:22:46.374Z,1005.6
2018-05-23T00:23:47.996Z,1005.6
2018-05-23T00:24:49.608Z,1005.6
2018-05-23T00:25:51.229Z,1005.7
2018-05-23T00:26:52.839Z,1005.6
2018-05-23T00:27:54.455Z,1005.6
2018-05-23T00:28:56.081Z,1005.6
2018-05-23T00:29:57.694Z,1005.6
2018-05-23T00:30:59.314Z,1005.6
2018-05-23T00:32:00.925Z,1005.6
2018-05-23T00:33:02.541Z,1005.6
2018-05-23T00:34:04.162Z,1005.6
2018-05-23T00:35:05.775Z,1005.5
2018-05-23T00:36:07.391Z,1005.5
2018-05-23T00:37:09.014Z,1005.6
2018-05-23T00:38:10.636Z,1005.6
2018-05-23T00:39:12.245Z,1005.6
2018-05-23T00:40:13.863Z,1005.6
2018-05-23T00:41:15.475Z,1005.6
2018-05-23T00:42:17.096Z,1005.5
2018-05-23T00:43:18.711Z,1005.5
2018-05-23T00:44:20.332Z,1005.5
2018-05-23T00:45:21.952Z,1005.5
2018-05-23T00:46:23.565Z,1005.5
2018-05-23T00:47:25.183Z,1005.5
2018-05-23T00:48:26.801Z,1005.5
2018-05-23T00:49:28.421Z,1005.5
2018-05-23T00:50:30.042Z,1005.5
2018-05-23T00:51:31.658Z,1005.5
2018-05-23T00:52:33.278Z,1005.5
2018-05-23T00:53:34.896Z,1005.5
2018-05-23T00:54:36.510Z,1005.5
2018-05-23T00:55:38.124Z,1005.5
2018-05-23T00:56:39.739Z,1005.6
2018-05-23T00:57:41.359Z,1005.6
2018-05-23T00:58:42.979Z,1005.5
2018-05-23T00:59:44.593Z,1005.6
2018-05-23T01:00:46.208Z,1005.5
2018-05-23T01:01:47.820Z,1005.5
2018-05-23T01:02:49.434Z,1005.5
2018-05-23T01:03:51.051Z,1005.6
2018-05-23T01:04:52.667Z,1005.6
2018-05-23T01:05:54.285Z,1005.6
2018-05-23T01:06:55.905Z,1005.6
2018-05-23T01:07:57.518Z,1005.6
2018-05-23T01:08:59.135Z,1005.6
2018-05-23T01:10:00.750Z,1005.6
2018-05-23T01:11:02.362Z,1005.6
2018-05-23T01:12:03.989Z,1005.6
2018-05-23T01:13:05.602Z,1005.6
2018-05-23T01:14:07.219Z,1005.6
2018-05-23T01:15:08.835Z,1005.5
2018-05-23T01:16:10.450Z,1005.6
2018-05-23T01:17:12.066Z,1005.6
2018-05-23T01:18:13.689Z,1005.6
2018-05-23T01:19:15.303Z,1005.6
2018-05-23T01:20:16.920Z,1005.6
2018-05-23T01:21:18.535Z,1005.6
2018-05-23T01:22:20.150Z,1005.6
2018-05-23T01:23:21.764Z,1005.6
2018-05-23T01:24:23.381Z,1005.6
2018-05-23T01:25:25.001Z,1005.6
2018-05-23T01:26:26.613Z,1005.6
2018-05-23T01:27:28.233Z,1005.5
2018-05-23T01:28:29.849Z,1005.6
2018-05-23T01:29:31.461Z,1005.5
2018-05-23T01:30:33.082Z,1005.5
2018-05-23T01:31:35.526Z,1005.5
2018-05-23T01:32:37.140Z,1005.6
2018-05-23T01:33:38.764Z,1005.5
2018-05-23T01:34:40.377Z,1005.5
2018-05-23T01:35:41.995Z,1005.5
2018-05-23T01:36:43.614Z,1005.5
2018-05-23T01:37:45.236Z,1005.5
2018-05-23T01:38:46.846Z,1005.5
2018-05-23T01:39:48.470Z,1005.5
2018-05-23T01:40:50.081Z,1005.5
2018-05-23T01:41:51.698Z,1005.5
2018-05-23T01:42:53.314Z,1005.5
2018-05-23T01:43:54.934Z,1005.5
2018-05-23T01:44:56.545Z,1005.6
2018-05-23T01:45:58.164Z,1005.6
2018-05-23T01:46:59.775Z,1005.6
2018-05-23T01:48:01.391Z,1005.6
2018-05-23T01:49:03.012Z,1005.6
2018-05-23T01:50:04.628Z,1005.6
2018-05-23T01:51:06.245Z,1005.6
2018-05-23T01:52:07.864Z,1005.6
2018-05-23T01:53:09.483Z,1005.6
2018-05-23T01:54:11.094Z,1005.6
2018-05-23T01:55:12.711Z,1005.6
2018-05-23T01:56:14.331Z,1005.6
2018-05-23T01:57:15.960Z,1005.6
2018-05-23T01:58:17.568Z,1005.6
2018-05-23T01:59:19.184Z,1005.6
2018-05-23T02:00:20.796Z,1005.6
2018-05-23T02:01:22.426Z,1005.6
2018-05-23T02:02:24.037Z,1005.6
2018-05-23T02:03:25.652Z,1005.6
2018-05-23T02:04:27.269Z,1005.7
2018-05-23T02:05:28.886Z,1005.7
2018-05-23T02:06:30.498Z,1005.7
2018-05-23T02:07:32.116Z,1005.7
2018-05-23T02:08:33.735Z,1005.6
2018-05-23T02:09:35.351Z,1005.6
2018-05-23T02:10:36.964Z,1005.7
2018-05-23T02:11:38.587Z,1005.6
2018-05-23T02:12:40.203Z,1005.6
2018-05-23T02:13:41.821Z,1005.6
2018-05-23T02:14:43.442Z,1005.6
2018-05-23T02:15:45.058Z,1005.6
2018-05-23T02:16:46.673Z,1005.7
2018-05-23T02:17:48.294Z,1005.7
2018-05-23T02:18:49.906Z,1005.7
2018-05-23T02:19:51.525Z,1005.7
2018-05-23T02:20:53.139Z,1005.7
2018-05-23T02:21:54.762Z,1005.7
2018-05-23T02:22:56.379Z,1005.7
2018-05-23T02:23:57.993Z,1005.7
2018-05-23T02:24:59.617Z,1005.7
2018-05-23T02:26:01.228Z,1005.7
2018-05-23T02:27:02.849Z,1005.7
2018-05-23T02:28:04.462Z,1005.7
2018-05-23T02:29:06.082Z,1005.7
2018-05-23T02:30:07.701Z,1005.7
2018-05-23T02:31:09.313Z,1005.6
2018-05-23T02:32:10.930Z,1005.6
2018-05-23T02:33:12.547Z,1005.7
2018-05-23T02:34:14.165Z,1005.7
2018-05-23T02:35:15.779Z,1005.7
2018-05-23T02:36:17.400Z,1005.7
2018-05-23T02:37:19.019Z,1005.7
2018-05-23T02:38:20.630Z,1005.7
2018-05-23T02:39:22.251Z,1005.7
2018-05-23T02:40:23.866Z,1005.7
2018-05-23T02:41:25.480Z,1005.7
2018-05-23T02:42:27.098Z,1005.7
2018-05-23T02:43:28.717Z,1005.7
2018-05-23T02:44:30.331Z,1005.7
2018-05-23T02:45:31.952Z,1005.7
2018-05-23T02:46:33.568Z,1005.7
2018-05-23T02:47:35.188Z,1005.7
2018-05-23T02:48:36.807Z,1005.7
2018-05-23T02:49:38.427Z,1005.7
2018-05-23T02:50:40.039Z,1005.7
2018-05-23T02:51:41.650Z,1005.7
2018-05-23T02:52:43.273Z,1005.8
2018-05-23T02:53:44.891Z,1005.8
2018-05-23T02:54:46.508Z,1005.8
2018-05-23T02:55:48.128Z,1005.7
2018-05-23T02:56:49.740Z,1005.8
2018-05-23T02:57:51.354Z,1005.8
2018-05-23T02:58:52.973Z,1005.8
2018-05-23T02:59:54.596Z,1005.8
2018-05-23T03:00:56.205Z,1005.8
2018-05-23T03:01:57.827Z,1005.8
2018-05-23T03:02:59.476Z,1005.8
2018-05-23T03:04:01.651Z,1005.8
2018-05-23T03:05:03.281Z,1005.8
2018-05-23T03:06:05.439Z,1005.8
2018-05-23T03:07:07.061Z,1005.8
2018-05-23T03:08:08.683Z,1005.9
2018-05-23T03:09:10.297Z,1005.8
2018-05-23T03:10:11.917Z,1005.8
2018-05-23T03:11:13.531Z,1005.8
2018-05-23T03:12:15.143Z,1005.9
2018-05-23T03:13:16.765Z,1005.9
2018-05-23T03:14:18.376Z,1005.9
2018-05-23T03:15:19.999Z,1005.9
2018-05-23T03:16:21.617Z,1005.9
2018-05-23T03:17:23.234Z,1005.9
2018-05-23T03:18:24.851Z,1005.9
2018-05-23T03:19:26.470Z,1005.9
2018-05-23T03:20:28.091Z,1005.9
2018-05-23T03:21:29.711Z,1005.9
2018-05-23T03:22:31.331Z,1005.9
2018-05-23T03:23:32.947Z,1006.0
2018-05-23T03:24:34.567Z,1006.0
2018-05-23T03:25:36.180Z,1006.0
2018-05-23T03:26:37.801Z,1006.0
2018-05-23T03:27:39.415Z,1006.0
2018-05-23T03:28:41.034Z,1006.0
2018-05-23T03:29:42.655Z,1006.0
2018-05-23T03:30:44.269Z,1006.0
2018-05-23T03:31:45.891Z,1006.0
2018-05-23T03:32:47.502Z,1005.9
2018-05-23T03:33:49.122Z,1005.9
2018-05-23T03:34:50.743Z,1005.9
2018-05-23T03:35:52.361Z,1005.9
2018-05-23T03:36:53.978Z,1006.0
2018-05-23T03:37:55.599Z,1006.0
2018-05-23T03:38:57.220Z,1006.0
2018-05-23T03:39:58.836Z,1006.0
2018-05-23T03:41:00.463Z,1006.0
2018-05-23T03:42:02.080Z,1006.0
2018-05-23T03:43:03.700Z,1006.0
2018-05-23T03:44:05.322Z,1006.0
2018-05-23T03:45:06.937Z,1006.0
2018-05-23T03:46:08.557Z,1006.0
2018-05-23T03:47:10.180Z,1006.0
2018-05-23T03:48:11.796Z,1006.0
2018-05-23T03:49:13.415Z,1006.0
2018-05-23T03:50:15.036Z,1006.0
2018-05-23T03:51:16.657Z,1006.0
2018-05-23T03:52:18.277Z,1006.0
2018-05-23T03:53:19.898Z,1006.0
2018-05-23T03:54:21.517Z,1006.0
2018-05-23T03:55:23.204Z,1006.1
2018-05-23T03:56:24.755Z,1006.0
2018-05-23T03:57:26.371Z,1006.0
2018-05-23T03:58:27.996Z,1006.0
2018-05-23T03:59:29.620Z,1006.1
2018-05-23T04:00:31.236Z,1006.1
2018-05-23T04:01:32.860Z,1006.0
2018-05-23T04:02:34.477Z,1006.0
2018-05-23T04:03:36.099Z,1006.1
2018-05-23T04:04:37.722Z,1006.1
2018-05-23T04:05:39.343Z,1006.1
2018-05-23T04:06:40.965Z,1006.1
2018-05-23T04:07:42.586Z,1006.1
2018-05-23T04:08:44.200Z,1006.1
2018-05-23T04:09:45.906Z,1006.1
2018-05-23T04:10:47.445Z,1006.1
2018-05-23T04:11:49.061Z,1006.1
2018-05-23T04:12:50.684Z,1006.1
2018-05-23T04:13:52.303Z,1006.1
2018-05-23T04:14:53.924Z,1006.1
2018-05-23T04:15:55.546Z,1006.1
2018-05-23T04:16:57.160Z,1006.1
2018-05-23T04:17:58.784Z,1006.1
2018-05-23T04:19:00.399Z,1006.2
2018-05-23T04:20:02.020Z,1006.2
2018-05-23T04:21:03.645Z,1006.2
2018-05-23T04:22:05.259Z,1006.2
2018-05-23T04:23:06.883Z,1006.2
2018-05-23T04:24:08.504Z,1006.2
2018-05-23T04:25:10.125Z,1006.3
2018-05-23T04:26:11.743Z,1006.3
2018-05-23T04:27:13.362Z,1006.3
2018-05-23T04:28:14.981Z,1006.3
2018-05-23T04:29:16.601Z,1006.3
2018-05-23T04:30:18.217Z,1006.3
2018-05-23T04:31:19.845Z,1006.3
2018-05-23T04:32:21.460Z,1006.3
2018-05-23T04:33:23.080Z,1006.3
2018-05-23T04:34:24.706Z,1006.4
2018-05-23T04:35:26.323Z,1006.4
2018-05-23T04:36:27.942Z,1006.4
2018-05-23T04:37:29.564Z,1006.4
2018-05-23T04:38:31.182Z,1006.4
2018-05-23T04:39:32.808Z,1006.5
2018-05-23T04:40:34.427Z,1006.5
2018-05-23T04:41:36.059Z,1006.5
2018-05-23T04:42:37.667Z,1006.5
2018-05-23T04:43:39.290Z,1006.5
2018-05-23T04:44:40.911Z,1006.5
2018-05-23T04:45:42.535Z,1006.5
2018-05-23T04:46:44.163Z,1006.6
2018-05-23T04:47:45.782Z,1006.6
2018-05-23T04:48:47.411Z,1006.6
2018-05-23T04:49:49.029Z,1006.6
2018-05-23T04:50:50.646Z,1006.6
2018-05-23T04:51:52.270Z,1006.6
2018-05-23T04:52:53.890Z,1006.6
2018-05-23T04:53:55.516Z,1006.7
2018-05-23T04:54:57.141Z,1006.6
2018-05-23T04:55:58.764Z,1006.6
2018-05-23T04:57:00.390Z,1006.7
2018-05-23T04:58:02.009Z,1006.7
2018-05-23T04:59:03.631Z,1006.7
2018-05-23T05:00:05.256Z,1006.7
2018-05-23T05:01:06.876Z,1006.7
2018-05-23T05:02:08.504Z,1006.8
2018-05-23T05:03:10.129Z,1006.8
2018-05-23T05:04:11.746Z,1006.8
2018-05-23T05:05:13.366Z,1006.8
2018-05-23T05:06:14.990Z,1006.8
2018-05-23T05:07:16.610Z,1006.8
2018-05-23T05:08:18.235Z,1006.8
2018-05-23T05:09:19.860Z,1006.9
2018-05-23T05:10:21.477Z,1006.9
2018-05-23T05:11:23.099Z,1006.9
2018-05-23T05:12:24.723Z,1006.9
2018-05-23T05:13:26.347Z,1006.9
2018-05-23T05:14:27.965Z,1006.9
2018-05-23T05:15:29.592Z,1007.0
2018-05-23T05:16:31.210Z,1007.0
2018-05-23T05:17:32.828Z,1007.0
2018-05-23T05:18:34.458Z,1007.0
2018-05-23T05:19:36.088Z,1007.0
2018-05-23T05:20:37.698Z,1007.0
2018-05-23T05:21:39.321Z,1007.0
2018-05-23T05:22:40.942Z,1007.0
2018-05-23T05:23:42.558Z,1007.0
2018-05-23T05:24:44.186Z,1007.1
2018-05-23T05:25:45.804Z,1007.1
2018-05-23T05:26:47.428Z,1007.1
2018-05-23T05:27:49.046Z,1007.1
2018-05-23T05:28:50.671Z,1007.2
2018-05-23T05:29:52.289Z,1007.1
2018-05-23T05:30:53.915Z,1007.2
2018-05-23T05:31:55.585Z,1007.2
2018-05-23T05:32:57.160Z,1007.2
2018-05-23T05:33:58.777Z,1007.2
2018-05-23T05:35:00.400Z,1007.2
2018-05-23T05:36:02.024Z,1007.2
2018-05-23T05:37:03.641Z,1007.3
2018-05-23T05:38:05.270Z,1007.3
2018-05-23T05:39:06.889Z,1007.3
2018-05-23T05:40:08.510Z,1007.3
2018-05-23T05:41:10.132Z,1007.3
2018-05-23T05:42:11.755Z,1007.3
2018-05-23T05:43:13.376Z,1007.4
2018-05-23T05:44:14.996Z,1007.4
2018-05-23T05:45:16.621Z,1007.4
2018-05-23T05:46:18.239Z,1007.4
2018-05-23T05:47:19.861Z,1007.4
2018-05-23T05:48:21.477Z,1007.5
2018-05-23T05:49:23.098Z,1007.5
2018-05-23T05:50:24.717Z,1007.5
2018-05-23T05:51:26.343Z,1007.5
2018-05-23T05:52:27.970Z,1007.5
2018-05-23T05:53:29.591Z,1007.5
2018-05-23T05:54:31.213Z,1007.5
2018-05-23T05:55:32.827Z,1007.5
2018-05-23T05:56:34.449Z,1007.6
2018-05-23T05:57:36.070Z,1007.6
2018-05-23T05:58:37.688Z,1007.6
2018-05-23T05:59:39.321Z,1007.6
2018-05-23T06:00:40.943Z,1007.7
2018-05-23T06:01:42.558Z,1007.6
2018-05-23T06:02:44.179Z,1007.7
2018-05-23T06:03:45.804Z,1007.7
2018-05-23T06:04:47.428Z,1007.8
2018-05-23T06:05:49.053Z,1007.7
2018-05-23T06:06:50.679Z,1007.8
2018-05-23T06:07:52.304Z,1007.8
2018-05-23T06:08:53.932Z,1007.8
2018-05-23T06:09:55.576Z,1007.8
2018-05-23T06:10:57.174Z,1007.8
2018-05-23T06:11:58.791Z,1007.8
2018-05-23T06:13:00.409Z,1007.8
2018-05-23T06:14:02.036Z,1007.8
2018-05-23T06:15:03.653Z,1007.8
2018-05-23T06:16:05.279Z,1007.8
2018-05-23T06:17:06.903Z,1007.8
2018-05-23T06:18:08.527Z,1007.8
2018-05-23T06:19:10.144Z,1007.9
2018-05-23T06:20:11.773Z,1007.9
2018-05-23T06:21:14.196Z,1007.9
2018-05-23T06:22:15.872Z,1007.9
2018-05-23T06:23:17.452Z,1007.9
2018-05-23T06:24:19.069Z,1008.0
2018-05-23T06:25:20.707Z,1008.0
2018-05-23T06:26:22.313Z,1008.0
2018-05-23T06:27:23.936Z,1008.0
2018-05-23T06:28:25.556Z,1008.1
2018-05-23T06:29:27.187Z,1008.1
2018-05-23T06:30:28.865Z,1008.1
2018-05-23T06:31:30.430Z,1008.1
2018-05-23T06:32:32.053Z,1008.1
2018-05-23T06:33:33.671Z,1008.0
2018-05-23T06:34:35.299Z,1008.0
2018-05-23T06:35:36.917Z,1008.0
2018-05-23T06:36:38.540Z,1008.1
2018-05-23T06:37:40.163Z,1008.0
2018-05-23T06:38:41.778Z,1008.0
2018-05-23T06:39:43.398Z,1008.0
2018-05-23T06:40:45.024Z,1008.0
2018-05-23T06:41:46.650Z,1008.0
2018-05-23T06:42:48.269Z,1008.0
2018-05-23T06:43:49.894Z,1008.0
2018-05-23T06:44:51.518Z,1008.0
2018-05-23T06:45:53.136Z,1008.1
2018-05-23T06:46:54.766Z,1008.1
2018-05-23T06:47:56.390Z,1008.1
2018-05-23T06:48:58.009Z,1008.1
2018-05-23T06:49:59.671Z,1008.0
2018-05-23T06:51:01.262Z,1008.1
2018-05-23T06:52:02.879Z,1008.1
2018-05-23T06:53:04.500Z,1008.1
2018-05-23T06:54:06.122Z,1008.1
2018-05-23T06:55:07.739Z,1008.1
2018-05-23T06:56:10.097Z,1008.1
2018-05-23T06:57:11.725Z,1008.0
2018-05-23T06:58:13.347Z,1008.1
2018-05-23T06:59:14.967Z,1008.1
2018-05-23T07:00:16.591Z,1008.0
2018-05-23T07:01:18.211Z,1008.1
2018-05-23T07:02:19.835Z,1008.1
2018-05-23T07:03:21.460Z,1008.1
2018-05-23T07:04:23.076Z,1008.1
2018-05-23T07:05:24.705Z,1008.1
2018-05-23T07:06:26.331Z,1008.2
2018-05-23T07:07:27.949Z,1008.2
2018-05-23T07:08:29.577Z,1008.2
2018-05-23T07:09:31.201Z,1008.2
2018-05-23T07:10:32.817Z,1008.3
2018-05-23T07:11:34.442Z,1008.3
2018-05-23T07:12:36.065Z,1008.3
2018-05-23T07:13:37.694Z,1008.3
2018-05-23T07:14:39.321Z,1008.3
2018-05-23T07:15:40.938Z,1008.3
2018-05-23T07:16:42.565Z,1008.3
2018-05-23T07:17:44.221Z,1008.3
2018-05-23T07:18:45.808Z,1008.3
2018-05-23T07:19:47.439Z,1008.3
2018-05-23T07:20:49.058Z,1008.3
2018-05-23T07:21:50.686Z,1008.2
2018-05-23T07:22:52.314Z,1008.2
2018-05-23T07:23:53.930Z,1008.3
2018-05-23T07:24:55.562Z,1008.3
2018-05-23T07:25:57.201Z,1008.3
2018-05-23T07:26:58.814Z,1008.3
2018-05-23T07:28:00.439Z,1008.3
2018-05-23T07:29:02.063Z,1008.3
2018-05-23T07:30:03.691Z,1008.3
2018-05-23T07:31:05.313Z,1008.3
2018-05-23T07:32:07.541Z,1008.3
2018-05-23T07:33:09.167Z,1008.4
2018-05-23T07:34:10.790Z,1008.4
2018-05-23T07:35:12.426Z,1008.4
2018-05-23T07:36:14.046Z,1008.4
2018-05-23T07:37:15.671Z,1008.4
2018-05-23T07:38:17.330Z,1008.4
2018-05-23T07:39:18.925Z,1008.4
2018-05-23T07:40:20.556Z,1008.4
2018-05-23T07:41:22.183Z,1008.4
2018-05-23T07:42:23.811Z,1008.4
2018-05-23T07:43:25.438Z,1008.4
2018-05-23T07:44:27.064Z,1008.4
2018-05-23T07:45:28.684Z,1008.4
2018-05-23T07:46:30.316Z,1008.4
2018-05-23T07:47:31.943Z,1008.4
2018-05-23T07:48:33.569Z,1008.4
2018-05-23T07:49:35.199Z,1008.4
2018-05-23T07:50:36.821Z,1008.4
2018-05-23T07:51:38.443Z,1008.4
2018-05-23T07:52:40.103Z,1008.4
2018-05-23T07:53:41.697Z,1008.5
2018-05-23T07:54:43.320Z,1008.4
2018-05-23T07:55:44.953Z,1008.4
2018-05-23T07:56:46.689Z,1008.5
2018-05-23T07:57:48.199Z,1008.5
2018-05-23T07:58:49.824Z,1008.6
2018-05-23T07:59:51.451Z,1008.6
2018-05-23T08:00:53.076Z,1008.6
2018-05-23T08:01:54.706Z,1008.6
2018-05-23T08:02:56.332Z,1008.6
2018-05-23T08:03:57.962Z,1008.6
2018-05-23T08:04:59.586Z,1008.7
2018-05-23T08:06:01.215Z,1008.7
2018-05-23T08:07:02.842Z,1008.7
2018-05-23T08:08:04.474Z,1008.7
2018-05-23T08:09:06.106Z,1008.7
2018-05-23T08:10:07.730Z,1008.7
2018-05-23T08:11:09.365Z,1008.8
2018-05-23T08:12:10.996Z,1008.8
2018-05-23T08:13:12.623Z,1008.9
2018-05-23T08:14:14.248Z,1008.8
2018-05-23T08:15:15.886Z,1008.8
2018-05-23T08:16:17.515Z,1008.8
2018-05-23T08:17:19.150Z,1008.8
2018-05-23T08:18:20.783Z,1008.8
2018-05-23T08:19:22.416Z,1008.8
2018-05-23T08:20:24.045Z,1008.8
2018-05-23T08:21:25.677Z,1008.8
2018-05-23T08:22:27.305Z,1008.8
2018-05-23T08:23:28.939Z,1008.9
2018-05-23T08:24:30.644Z,1008.9
2018-05-23T08:25:32.202Z,1008.9
2018-05-23T08:26:33.835Z,1008.9
2018-05-23T08:27:35.466Z,1008.9
2018-05-23T08:28:37.097Z,1008.9
2018-05-23T08:29:38.727Z,1008.9
2018-05-23T08:30:40.359Z,1008.9
2018-05-23T08:31:41.995Z,1008.9
2018-05-23T08:32:43.634Z,1008.8
2018-05-23T08:33:45.279Z,1008.9
2018-05-23T08:34:46.913Z,1008.9
2018-05-23T08:35:48.544Z,1008.9
2018-05-23T08:36:50.174Z,1008.9
2018-05-23T08:37:51.812Z,1008.9
2018-05-23T08:38:53.453Z,1009.0
2018-05-23T08:39:55.084Z,1009.0
2018-05-23T08:40:56.723Z,1009.0
2018-05-23T08:41:58.353Z,1009.0
2018-05-23T08:42:59.983Z,1009.0
2018-05-23T08:44:01.622Z,1008.9
2018-05-23T08:45:03.258Z,1008.9
2018-05-23T08:46:04.966Z,1009.0
2018-05-23T08:47:06.522Z,1009.0
2018-05-23T08:48:08.159Z,1009.0
2018-05-23T08:49:09.788Z,1009.0
2018-05-23T08:50:11.422Z,1009.0
2018-05-23T08:51:13.056Z,1008.9
2018-05-23T08:52:14.689Z,1008.9
2018-05-23T08:53:16.325Z,1009.0
2018-05-23T08:54:17.959Z,1008.9
2018-05-23T08:55:19.593Z,1009.0
2018-05-23T08:56:21.221Z,1008.9
2018-05-23T08:57:22.850Z,1009.0
2018-05-23T08:58:24.487Z,1009.0
2018-05-23T08:59:26.117Z,1008.9
2018-05-23T09:00:27.750Z,1009.0
2018-05-23T09:01:29.386Z,1009.0
2018-05-23T09:02:31.015Z,1009.0
2018-05-23T09:03:32.644Z,1009.1
2018-05-23T09:04:34.277Z,1009.1
2018-05-23T09:05:35.907Z,1009.1
2018-05-23T09:06:37.541Z,1009.1
2018-05-23T09:07:39.177Z,1009.1
2018-05-23T09:08:40.804Z,1009.1
2018-05-23T09:09:42.436Z,1009.1
2018-05-23T09:10:44.061Z,1009.1
2018-05-23T09:11:45.695Z,1009.1
2018-05-23T09:12:47.329Z,1009.2
2018-05-23T09:13:48.954Z,1009.2
2018-05-23T09:14:50.587Z,1009.2
2018-05-23T09:15:52.215Z,1009.2
2018-05-23T09:16:53.850Z,1009.3
2018-05-23T09:17:55.480Z,1009.3
2018-05-23T09:18:57.106Z,1009.3
2018-05-23T09:19:58.738Z,1009.3
2018-05-23T09:21:00.373Z,1009.3
2018-05-23T09:22:01.995Z,1009.3
2018-05-23T09:23:03.627Z,1009.3
2018-05-23T09:24:05.258Z,1009.4
2018-05-23T09:25:06.890Z,1009.4
2018-05-23T09:26:08.513Z,1009.4
2018-05-23T09:27:10.147Z,1009.4
2018-05-23T09:28:11.778Z,1009.4
2018-05-23T09:29:13.410Z,1009.5
2018-05-23T09:30:15.044Z,1009.5
2018-05-23T09:31:16.669Z,1009.5
2018-05-23T09:32:18.352Z,1009.5
2018-05-23T09:33:19.929Z,1009.6
2018-05-23T09:34:21.557Z,1009.5
2018-05-23T09:35:23.192Z,1009.6
2018-05-23T09:36:24.816Z,1009.5
2018-05-23T09:37:26.450Z,1009.6
2018-05-23T09:38:28.084Z,1009.5
2018-05-23T09:39:29.717Z,1009.5
2018-05-23T09:40:31.351Z,1009.6
2018-05-23T09:41:32.978Z,1009.6
2018-05-23T09:42:34.603Z,1009.6
2018-05-23T09:43:36.240Z,1009.6
2018-05-23T09:44:37.873Z,1009.7
2018-05-23T09:45:39.499Z,1009.6
2018-05-23T09:46:41.134Z,1009.7
2018-05-23T09:47:42.764Z,1009.7
2018-05-23T09:48:44.397Z,1009.6
2018-05-23T09:49:46.033Z,1009.6
2018-05-23T09:50:47.668Z,1009.7
2018-05-23T09:51:49.300Z,1009.6
2018-05-23T09:52:50.938Z,1009.6
2018-05-23T09:53:52.568Z,1009.6
2018-05-23T09:54:54.204Z,1009.6
2018-05-23T09:55:55.834Z,1009.5
2018-05-23T09:56:57.472Z,1009.6
2018-05-23T09:57:59.103Z,1009.6
2018-05-23T09:59:00.744Z,1009.6
2018-05-23T10:00:02.375Z,1009.6
2018-05-23T10:01:04.011Z,1009.6
2018-05-23T10:02:05.639Z,1009.5
2018-05-23T10:03:07.276Z,1009.6
2018-05-23T10:04:08.909Z,1009.6
2018-05-23T10:05:10.537Z,1009.6
2018-05-23T10:06:12.176Z,1009.6
2018-05-23T10:07:13.801Z,1009.6
2018-05-23T10:08:15.437Z,1009.7
2018-05-23T10:09:17.070Z,1009.7
2018-05-23T10:10:18.701Z,1009.7
2018-05-23T10:11:20.334Z,1009.7
2018-05-23T10:12:21.966Z,1009.7
2018-05-23T10:13:23.601Z,1009.7
2018-05-23T10:14:25.223Z,1009.7
2018-05-23T10:15:26.851Z,1009.7
2018-05-23T10:16:28.484Z,1009.8
2018-05-23T10:17:30.120Z,1009.8
2018-05-23T10:18:31.744Z,1009.8
2018-05-23T10:19:33.378Z,1009.8
2018-05-23T10:20:35.005Z,1009.8
2018-05-23T10:21:36.632Z,1009.8
2018-05-23T10:22:38.265Z,1009.8
2018-05-23T10:23:39.892Z,1009.8
2018-05-23T10:24:41.525Z,1009.9
2018-05-23T10:25:43.155Z,1009.9
2018-05-23T10:26:44.787Z,1009.8
2018-05-23T10:27:46.423Z,1009.8
2018-05-23T10:28:48.049Z,1009.9
2018-05-23T10:29:49.678Z,1009.8
2018-05-23T10:30:51.305Z,1009.9
2018-05-23T10:31:52.932Z,1009.9
2018-05-23T10:32:54.559Z,1009.9
2018-05-23T10:33:56.185Z,1009.9
2018-05-23T10:34:57.820Z,1009.9
2018-05-23T10:35:59.450Z,1009.9
2018-05-23T10:37:01.079Z,1009.9
2018-05-23T10:38:02.707Z,1009.9
2018-05-23T10:39:04.333Z,1009.9
2018-05-23T10:40:05.965Z,1009.9
2018-05-23T10:41:07.591Z,1009.9
2018-05-23T10:42:09.219Z,1010.0
2018-05-23T10:43:10.844Z,1010.0
2018-05-23T10:44:12.472Z,1010.0
2018-05-23T10:45:14.096Z,1010.0
2018-05-23T10:46:15.753Z,1010.0
2018-05-23T10:47:17.348Z,1010.0
2018-05-23T10:48:18.983Z,1009.9
2018-05-23T10:49:20.607Z,1010.0
2018-05-23T10:50:22.234Z,1010.0
2018-05-23T10:51:23.856Z,1009.9
2018-05-23T10:52:25.477Z,1010.0
2018-05-23T10:53:27.108Z,1010.0
2018-05-23T10:54:28.730Z,1010.0
2018-05-23T10:55:30.361Z,1010.0
2018-05-23T10:56:31.986Z,1010.0
2018-05-23T10:57:33.610Z,1010.0
2018-05-23T10:58:35.239Z,1010.0
2018-05-23T10:59:36.868Z,1010.0
2018-05-23T11:00:38.496Z,1010.0
2018-05-23T11:01:40.124Z,1010.0
2018-05-23T11:02:41.747Z,1010.0
2018-05-23T11:03:43.377Z,1010.0
2018-05-23T11:04:45.003Z,1010.1
2018-05-23T11:05:46.725Z,1010.1
2018-05-23T11:06:48.254Z,1010.1
2018-05-23T11:07:49.878Z,1010.1
2018-05-23T11:08:51.528Z,1010.1
2018-05-23T11:09:53.134Z,1010.1
2018-05-23T11:10:54.758Z,1010.1
2018-05-23T11:11:56.384Z,1010.1
2018-05-23T11:12:58.009Z,1010.1
2018-05-23T11:13:59.633Z,1010.1
2018-05-23T11:15:01.364Z,1010.1
2018-05-23T11:16:02.892Z,1010.1
2018-05-23T11:17:04.506Z,1010.1
2018-05-23T11:18:06.140Z,1010.1
2018-05-23T11:19:07.764Z,1010.1
2018-05-23T11:20:09.390Z,1010.2
2018-05-23T11:21:11.014Z,1010.2
2018-05-23T11:22:12.640Z,1010.2
2018-05-23T11:23:14.269Z,1010.2
2018-05-23T11:24:15.890Z,1010.2
2018-05-23T11:25:17.516Z,1010.1
2018-05-23T11:26:19.138Z,1010.2
2018-05-23T11:27:20.761Z,1010.2
2018-05-23T11:28:22.389Z,1010.2
2018-05-23T11:29:24.010Z,1010.2
2018-05-23T11:30:25.639Z,1010.2
2018-05-23T11:31:27.263Z,1010.2
2018-05-23T11:32:28.898Z,1010.2
2018-05-23T11:33:30.515Z,1010.2
2018-05-23T11:34:32.137Z,1010.2
2018-05-23T11:35:33.765Z,1010.2
2018-05-23T11:36:35.395Z,1010.2
2018-05-23T11:37:37.020Z,1010.2
2018-05-23T11:38:38.643Z,1010.2
2018-05-23T11:39:40.270Z,1010.2
2018-05-23T11:40:41.898Z,1010.1
2018-05-23T11:41:43.520Z,1010.1
2018-05-23T11:42:45.149Z,1010.1
2018-05-23T11:43:46.780Z,1010.1
2018-05-23T11:44:48.399Z,1010.1
2018-05-23T11:45:50.026Z,1010.1
2018-05-23T11:46:51.657Z,1010.1
2018-05-23T11:47:53.276Z,1010.1
2018-05-23T11:48:54.903Z,1010.1
2018-05-23T11:49:56.525Z,1010.1
2018-05-23T11:50:58.149Z,1010.1
2018-05-23T11:51:59.779Z,1010.1
2018-05-23T11:53:01.407Z,1010.1
2018-05-23T11:54:03.041Z,1010.1
2018-05-23T11:55:04.662Z,1010.1
2018-05-23T11:56:06.293Z,1010.1
2018-05-23T11:57:07.915Z,1010.1
2018-05-23T11:58:09.541Z,1010.1
2018-05-23T11:59:11.171Z,1010.1
2018-05-23T12:00:12.796Z,1010.1
2018-05-23T12:01:14.431Z,1010.1
2018-05-23T12:02:16.055Z,1010.1
2018-05-23T12:03:17.679Z,1010.1
2018-05-23T12:04:19.306Z,1010.1
2018-05-23T12:05:20.925Z,1010.1
2018-05-23T12:06:22.557Z,1010.1
2018-05-23T12:07:24.190Z,1010.1
2018-05-23T12:08:25.829Z,1010.1
2018-05-23T12:09:27.442Z,1010.1
2018-05-23T12:10:29.077Z,1010.1
2018-05-23T12:11:30.694Z,1010.1
2018-05-23T12:12:32.324Z,1010.1
2018-05-23T12:13:33.950Z,1010.1
2018-05-23T12:14:35.581Z,1010.2
2018-05-23T12:15:37.212Z,1010.2
2018-05-23T12:16:38.834Z,1010.2
2018-05-23T12:17:40.464Z,1010.2
2018-05-23T12:18:42.089Z,1010.2
2018-05-23T12:19:43.723Z,1010.2
2018-05-23T12:20:45.345Z,1010.3
2018-05-23T12:21:46.973Z,1010.3
2018-05-23T12:22:48.599Z,1010.3
2018-05-23T12:23:50.229Z,1010.3
2018-05-23T12:24:51.848Z,1010.2
2018-05-23T12:25:53.479Z,1010.2
2018-05-23T12:26:55.104Z,1010.2
2018-05-23T12:27:56.809Z,1010.3
2018-05-23T12:28:58.366Z,1010.2
2018-05-23T12:29:59.993Z,1010.3
2018-05-23T12:31:01.626Z,1010.3
2018-05-23T12:32:03.243Z,1010.3
2018-05-23T12:33:04.868Z,1010.3
2018-05-23T12:34:06.501Z,1010.3
2018-05-23T12:35:08.128Z,1010.3
2018-05-23T12:36:09.754Z,1010.3
2018-05-23T12:37:11.389Z,1010.3
2018-05-23T12:38:13.012Z,1010.3
2018-05-23T12:39:14.642Z,1010.3
2018-05-23T12:40:16.264Z,1010.3
2018-05-23T12:41:17.897Z,1010.3
2018-05-23T12:42:19.520Z,1010.3
2018-05-23T12:43:21.150Z,1010.3
2018-05-23T12:44:22.779Z,1010.3
2018-05-23T12:45:24.411Z,1010.3
2018-05-23T12:46:26.029Z,1010.3
2018-05-23T12:47:27.676Z,1010.2
2018-05-23T12:48:29.307Z,1010.2